Observations for STAVERTON PRIVATE, United Kingdom (EGBJ)

EGBJ 241850Z 16002KT CAVOK 03/M00 Q1012 
EGBJ 241820Z 17002KT CAVOK 03/M00 Q1012 
EGBJ 241750Z 17003KT CAVOK 03/M00 Q1012 
EGBJ 241720Z 18002KT CAVOK 04/M00 Q1012 
EGBJ 241650Z 18002KT CAVOK 05/M00 Q1012 
EGBJ 241620Z 00000KT CAVOK 06/M00 Q1012 
EGBJ 241550Z 00000KT 9999 FEW040 08/M01 Q1012   
EGBJ 241420Z 28002KT 9999 FEW040 09/01 Q1012
EGBJ 241150Z 00000KT CAVOK 08/03 Q1012  
EGBJ 241050Z 00000KT CAVOK 06/03 Q1011  
EGBJ 241020Z 00000KT CAVOK 05/03 Q1011